Time;durP1;ratioP1;P1;durP2;ratioP2;P2;SDS_P1;SDS_P2;PMS_P1;PMS_P2;Temp;Humidity;BMP_temperature;BMP_pressure;BME280_temperature;BME280_humidity;BME280_pressure;Samples;Min_cycle;Max_cycle;Signal;HPM_P1;HPM_P2
2022/12/15 00:38:43;;;;;;;24.13;16.37;;;;;;;-7.66;100.00;100536.19;5028562;28;20091;-61
2022/12/15 00:41:09;;;;;;;24.55;15.93;;;;;;;-7.64;100.00;100542.25;5027759;28;20010;-60
2022/12/15 00:43:38;;;;;;;23.30;15.67;;;;;;;-7.59;100.00;100536.09;5020777;28;20030;-61
2022/12/15 00:48:48;;;;;;;24.47;15.73;;;;;;;-7.55;100.00;100548.22;5022235;28;20037;-60
2022/12/15 00:51:14;;;;;;;25.53;17.63;;;;;;;-7.53;100.00;100546.75;5011441;28;20452;-61
2022/12/15 01:21:07;;;;;;;26.13;15.87;;;;;;;-7.36;100.00;100555.09;5030399;28;20036;-61
2022/12/15 01:23:32;;;;;;;23.60;15.70;;;;;;;-7.38;100.00;100552.44;5029444;28;20488;-60
2022/12/15 01:25:58;;;;;;;24.03;16.47;;;;;;;-7.32;100.00;100547.09;5016223;28;20061;-61
2022/12/15 01:28:23;;;;;;;23.87;16.40;;;;;;;-7.26;100.00;100551.84;5031127;28;20056;-61
2022/12/15 01:30:49;;;;;;;24.90;16.47;;;;;;;-7.23;100.00;100553.03;5014253;28;20390;-61
2022/12/15 01:33:15;;;;;;;27.00;17.07;;;;;;;-7.17;100.00;100549.34;5011560;28;20026;-61
2022/12/15 01:35:41;;;;;;;24.73;16.67;;;;;;;-7.15;100.00;100552.91;5012576;28;20033;-61
2022/12/15 01:38:07;;;;;;;23.73;15.87;;;;;;;-7.14;100.00;100557.22;5011823;28;20367;-61
2022/12/15 01:40:44;;;;;;;25.93;15.17;;;;;;;-7.14;100.00;100550.53;5011768;28;20026;-61
2022/12/15 01:43:14;;;;;;;26.40;16.43;;;;;;;-7.12;100.00;100558.25;5012036;28;20336;-61
2022/12/15 01:45:45;;;;;;;20.17;14.93;;;;;;;-7.11;100.00;100552.47;5012010;28;20049;-61
2022/12/15 01:48:16;;;;;;;23.43;15.90;;;;;;;-7.08;100.00;100561.94;5011685;28;20037;-61
2022/12/15 01:50:48;;;;;;;22.73;15.50;;;;;;;-7.06;100.00;100560.47;5011303;28;20549;-61
2022/12/15 01:53:14;;;;;;;23.50;15.60;;;;;;;-7.04;100.00;100569.97;5018178;28;20484;-61
2022/12/15 01:55:42;;;;;;;23.73;15.20;;;;;;;-7.05;100.00;100568.19;5029675;28;20036;-61
2022/12/15 01:58:13;;;;;;;25.53;16.40;;;;;;;-7.04;100.00;100572.50;5024104;28;20065;-61
2022/12/15 02:00:38;;;;;;;24.53;16.20;;;;;;;-7.04;100.00;100580.06;5010449;28;20029;-61
2022/12/15 02:03:05;;;;;;;21.37;14.13;;;;;;;-7.05;100.00;100578.25;5017031;28;20801;-61
2022/12/15 02:05:32;;;;;;;19.73;14.20;;;;;;;-7.08;100.00;100579.59;5029604;28;20083;-61
2022/12/15 02:07:59;;;;;;;21.07;15.70;;;;;;;-7.11;100.00;100578.56;5023187;28;20308;-61
2022/12/15 02:10:35;;;;;;;20.80;14.90;;;;;;;-7.11;100.00;100585.22;5018338;28;20124;-61
2022/12/15 02:13:11;;;;;;;21.43;14.40;;;;;;;-7.12;100.00;100591.91;5022759;28;20059;-61
2022/12/15 02:15:48;;;;;;;21.83;15.23;;;;;;;-7.14;100.00;100600.94;5016076;28;20274;-61
2022/12/15 02:18:18;;;;;;;24.37;15.83;;;;;;;-7.13;100.00;100604.34;5025724;28;20022;-61
2022/12/15 02:21:06;;;;;;;25.05;17.83;;;;;;;-7.12;100.00;100601.06;5019460;28;20019;-60
2022/12/15 02:23:56;;;;;;;26.37;15.67;;;;;;;-7.09;100.00;100600.50;5024109;28;20509;-61
2022/12/15 02:26:47;;;;;;;23.73;16.67;;;;;;;-7.07;100.00;100607.47;5026282;28;20108;-60
2022/12/15 02:29:29;;;;;;;28.75;15.95;;;;;;;-7.07;100.00;100594.88;5029661;28;20021;-61
2022/12/15 02:32:08;;;;;;;21.53;15.37;;;;;;;-7.07;100.00;100594.88;5028174;28;20025;-61
2022/12/15 02:34:39;;;;;;;22.23;16.13;;;;;;;-7.07;100.00;100588.94;5017251;28;20033;-60
2022/12/15 02:37:12;;;;;;;26.53;16.20;;;;;;;-7.06;100.00;100596.66;5026702;28;20072;-60
2022/12/15 02:39:37;;;;;;;22.40;15.77;;;;;;;-7.01;100.00;100604.66;5028516;28;20029;-61
2022/12/15 02:42:03;;;;;;;25.70;15.57;;;;;;;-7.02;100.00;100603.78;5029087;28;20484;-61
2022/12/15 02:44:38;;;;;;;23.67;15.93;;;;;;;-7.04;100.00;100611.91;5029277;28;20056;-60
2022/12/15 02:47:15;;;;;;;21.50;15.27;;;;;;;-7.03;100.00;100608.66;5028707;28;20156;-61
2022/12/15 02:50:10;;;;;;;21.93;15.23;;;;;;;-7.04;100.00;100609.41;5020773;28;20060;-61
2022/12/15 02:53:17;;;;;;;22.73;15.60;;;;;;;-7.07;100.00;100610.00;5003634;28;20050;-60
2022/12/15 02:55:54;;;;;;;19.57;15.43;;;;;;;-7.10;100.00;100619.75;5021282;28;20100;-61
2022/12/15 02:58:36;;;;;;;25.67;16.03;;;;;;;-7.13;100.00;100614.41;5016591;28;20017;-60
2022/12/15 03:01:08;;;;;;;23.40;16.40;;;;;;;-7.16;100.00;100612.47;5029087;28;20040;-60
2022/12/15 03:03:34;;;;;;;23.80;16.60;;;;;;;-7.18;100.00;100600.47;5018432;28;20057;-61
2022/12/15 03:06:01;;;;;;;23.93;15.70;;;;;;;-7.18;100.00;100598.84;5009012;28;20109;-60
2022/12/15 03:08:27;;;;;;;26.73;17.07;;;;;;;-7.12;100.00;100607.00;5019689;28;20091;-60
2022/12/15 03:10:53;;;;;;;26.10;16.47;;;;;;;-7.07;100.00;100609.09;5015581;28;20025;-60
2022/12/15 03:13:19;;;;;;;21.87;15.63;;;;;;;-7.07;100.00;100615.03;5028404;28;20040;-61
2022/12/15 03:15:44;;;;;;;22.37;16.17;;;;;;;-7.05;100.00;100612.66;5028811;28;20017;-60
2022/12/15 03:18:11;;;;;;;21.73;16.37;;;;;;;-7.06;100.00;100626.88;5028796;28;20036;-60
2022/12/15 03:20:36;;;;;;;26.77;17.03;;;;;;;-7.07;100.00;100629.25;5018431;28;20017;-61
2022/12/15 03:23:01;;;;;;;25.63;17.50;;;;;;;-7.10;100.00;100619.75;5013053;28;20501;-61
2022/12/15 03:25:28;;;;;;;28.87;17.07;;;;;;;-7.14;100.00;100622.72;5021600;28;20026;-60
2022/12/15 03:27:53;;;;;;;22.23;15.97;;;;;;;-7.14;100.00;100627.78;5019483;28;20167;-61
2022/12/15 03:30:19;;;;;;;23.80;15.10;;;;;;;-7.15;100.00;100628.50;5025549;28;20101;-61
2022/12/15 03:32:45;;;;;;;25.43;15.60;;;;;;;-7.19;100.00;100639.00;5008775;28;20034;-61
2022/12/15 03:35:11;;;;;;;22.23;16.30;;;;;;;-7.23;100.00;100628.63;5008982;28;20032;-61
2022/12/15 03:37:37;;;;;;;23.60;16.47;;;;;;;-7.25;100.00;100640.16;5008491;28;20033;-61
2022/12/15 03:40:02;;;;;;;23.67;15.93;;;;;;;-7.29;100.00;100638.09;5008899;28;20026;-61
2022/12/15 03:45:12;;;;;;;25.27;15.53;;;;;;;-7.31;100.00;100637.03;5026468;28;20086;-60
2022/12/15 03:47:41;;;;;;;23.37;16.23;;;;;;;-7.31;100.00;100641.19;5028107;28;20473;-61
2022/12/15 03:50:07;;;;;;;23.33;15.50;;;;;;;-7.33;100.00;100646.06;5024697;28;20042;-60
2022/12/15 03:52:33;;;;;;;21.33;15.43;;;;;;;-7.35;100.00;100640.88;5026291;28;20021;-60
2022/12/15 03:54:58;;;;;;;19.33;15.07;;;;;;;-7.37;100.00;100639.81;5024823;28;20370;-61
2022/12/15 03:57:23;;;;;;;29.10;17.37;;;;;;;-7.32;100.00;100644.44;5026479;28;20382;-61
2022/12/15 03:59:49;;;;;;;24.03;16.73;;;;;;;-7.28;100.00;100644.00;5024510;28;20071;-61
2022/12/15 04:02:14;;;;;;;20.90;15.90;;;;;;;-7.28;100.00;100644.91;5026154;28;20028;-60
2022/12/15 04:04:39;;;;;;;25.53;15.90;;;;;;;-7.31;100.00;100639.56;5023329;28;20029;-61
2022/12/15 04:07:04;;;;;;;26.03;15.93;;;;;;;-7.31;100.00;100639.56;5026193;28;20064;-61
2022/12/15 04:09:30;;;;;;;24.20;16.60;;;;;;;-7.31;100.00;100634.53;5023915;28;20030;-61
2022/12/15 04:11:55;;;;;;;23.10;16.77;;;;;;;-7.32;100.00;100626.81;5026412;28;20037;-60
2022/12/15 04:14:20;;;;;;;22.70;15.20;;;;;;;-7.34;100.00;100629.19;5013821;28;20022;-60
2022/12/15 04:16:45;;;;;;;22.97;15.47;;;;;;;-7.35;100.00;100623.25;5013780;28;20053;-61
2022/12/15 04:21:54;;;;;;;22.90;15.60;;;;;;;-7.37;100.00;100626.34;5015768;28;20112;-60
2022/12/15 05:32:39;;;;;;;28.30;18.23;;;;;;;-7.48;100.00;100676.50;5014675;28;20474;-61
2022/12/15 05:35:05;;;;;;;24.97;16.43;;;;;;;-7.51;100.00;100673.69;5010494;28;20030;-61
2022/12/15 05:37:30;;;;;;;28.03;18.07;;;;;;;-7.53;100.00;100677.66;5006238;28;20116;-60
2022/12/15 05:39:55;;;;;;;27.77;17.97;;;;;;;-7.56;100.00;100669.81;5005166;28;20084;-60
2022/12/15 05:42:21;;;;;;;29.27;17.77;;;;;;;-7.56;100.00;100672.34;5005224;28;20014;-60
2022/12/15 05:44:46;;;;;;;26.00;17.77;;;;;;;-7.55;100.00;100674.09;5006242;28;20117;-61
2022/12/15 05:47:11;;;;;;;27.80;19.37;;;;;;;-7.54;100.00;100680.94;5007943;28;20030;-61
2022/12/15 05:49:36;;;;;;;31.20;20.13;;;;;;;-7.54;100.00;100685.97;5017904;28;20417;-61
2022/12/15 05:52:02;;;;;;;29.67;20.40;;;;;;;-7.58;100.00;100691.44;5010999;28;20057;-61
2022/12/15 05:54:27;;;;;;;30.57;19.73;;;;;;;-7.54;100.00;100691.00;5010479;28;20100;-61
2022/12/15 05:56:52;;;;;;;30.47;21.03;;;;;;;-7.55;100.00;100694.25;5009577;28;20084;-61
2022/12/15 05:59:18;;;;;;;26.30;18.87;;;;;;;-7.54;100.00;100688.50;5009216;28;20025;-61
2022/12/15 06:01:43;;;;;;;30.03;19.63;;;;;;;-7.55;100.00;100695.88;5020290;28;20041;-61
2022/12/15 06:04:11;;;;;;;28.97;19.30;;;;;;;-7.55;100.00;100696.75;5021672;28;20021;-61
2022/12/15 06:06:37;;;;;;;31.63;21.03;;;;;;;-7.55;100.00;100694.25;5025670;28;20033;-61
2022/12/15 06:09:03;;;;;;;31.73;19.80;;;;;;;-7.53;100.00;100692.78;5021731;28;20018;-61
2022/12/15 06:11:28;;;;;;;30.33;20.17;;;;;;;-7.53;100.00;100697.81;5026287;28;20026;-61
2022/12/15 06:13:54;;;;;;;30.50;22.13;;;;;;;-7.51;100.00;100698.88;5028335;28;20733;-61
2022/12/15 06:16:21;;;;;;;32.40;19.20;;;;;;;-7.47;100.00;100693.44;5027579;28;20115;-61
2022/12/15 06:18:55;;;;;;;31.20;21.00;;;;;;;-7.45;100.00;100695.19;5016553;28;20029;-61
2022/12/15 06:21:23;;;;;;;29.37;21.23;;;;;;;-7.47;100.00;100695.94;5011965;28;20014;-61
2022/12/15 06:23:49;;;;;;;30.30;20.53;;;;;;;-7.48;100.00;100706.72;5010185;28;20115;-61
2022/12/15 06:26:19;;;;;;;32.07;19.77;;;;;;;-7.48;100.00;100699.19;5010444;28;20505;-61
2022/12/15 06:28:45;;;;;;;29.23;19.13;;;;;;;-7.49;100.00;100694.00;5012591;28;20100;-61
2022/12/15 06:31:11;;;;;;;30.77;19.80;;;;;;;-7.52;100.00;100702.09;5021690;28;20095;-62
2022/12/15 06:33:37;;;;;;;30.73;20.47;;;;;;;-7.54;100.00;100703.59;5031435;28;20025;-62
2022/12/15 06:36:08;;;;;;;33.17;19.77;;;;;;;-7.56;100.00;100711.72;5016605;28;20076;-62
2022/12/15 06:38:34;;;;;;;29.10;19.98;;;;;;;-7.58;100.00;100721.63;5028194;28;20020;-62
2022/12/15 06:41:00;;;;;;;30.60;19.93;;;;;;;-7.60;100.00;100716.44;5023306;28;20428;-62
2022/12/15 06:43:27;;;;;;;28.00;19.07;;;;;;;-7.64;100.00;100715.94;5025546;28;20037;-62
2022/12/15 06:45:52;;;;;;;27.80;19.67;;;;;;;-7.66;100.00;100714.94;5019912;28;20365;-62
2022/12/15 06:48:18;;;;;;;27.90;19.33;;;;;;;-7.69;100.00;100714.59;5020417;28;20018;-62
2022/12/15 06:50:46;;;;;;;32.93;21.10;;;;;;;-7.72;100.00;100725.25;5016458;28;20103;-62
2022/12/15 06:53:14;;;;;;;28.77;19.33;;;;;;;-7.74;100.00;100729.22;5027606;28;20546;-62
2022/12/15 06:55:40;;;;;;;27.93;18.37;;;;;;;-7.75;100.00;100720.78;5018728;28;20030;-63
2022/12/15 06:58:06;;;;;;;30.70;20.63;;;;;;;-7.71;100.00;100711.91;5024560;28;20115;-62
2022/12/15 07:00:33;;;;;;;32.47;20.13;;;;;;;-7.67;100.00;100718.16;5033138;28;20024;-62
2022/12/15 07:02:58;;;;;;;29.97;20.47;;;;;;;-7.64;100.00;100713.44;5020410;28;20098;-62
2022/12/15 07:05:23;;;;;;;30.97;19.47;;;;;;;-7.63;100.00;100705.16;5009087;28;20025;-62
2022/12/15 07:07:50;;;;;;;27.30;19.57;;;;;;;-7.63;100.00;100706.06;5009162;28;20022;-62
2022/12/15 07:10:16;;;;;;;28.50;20.17;;;;;;;-7.62;100.00;100715.38;5011797;28;20032;-63
2022/12/15 07:12:41;;;;;;;29.87;20.70;;;;;;;-7.60;100.00;100729.03;5011474;28;20382;-62
2022/12/15 07:15:07;;;;;;;30.93;20.40;;;;;;;-7.59;100.00;100730.81;5012776;28;20053;-62
2022/12/15 07:17:35;;;;;;;28.70;19.30;;;;;;;-7.57;100.00;100736.00;5011354;28;20018;-63
2022/12/15 07:20:01;;;;;;;30.83;20.20;;;;;;;-7.54;100.00;100732.91;5008311;28;20482;-62
2022/12/15 07:22:27;;;;;;;28.47;19.77;;;;;;;-7.53;100.00;100732.16;5012890;28;20075;-63
2022/12/15 07:24:52;;;;;;;29.70;18.80;;;;;;;-7.53;100.00;100733.06;5012406;28;20501;-62
2022/12/15 07:27:18;;;;;;;25.40;18.93;;;;;;;-7.50;100.00;100730.84;5026868;28;20036;-62
2022/12/15 07:29:43;;;;;;;30.90;20.33;;;;;;;-7.49;100.00;100726.72;5018521;28;20427;-62
2022/12/15 07:32:08;;;;;;;26.90;20.40;;;;;;;-7.48;100.00;100736.03;5026065;28;20084;-62
2022/12/15 07:34:33;;;;;;;29.83;20.03;;;;;;;-7.50;100.00;100735.91;5027646;28;20025;-62
2022/12/15 07:36:59;;;;;;;30.50;19.83;;;;;;;-7.52;100.00;100739.00;5012205;28;20335;-62
2022/12/15 07:39:26;;;;;;;26.83;18.67;;;;;;;-7.53;100.00;100743.13;5008359;28;20041;-63
2022/12/15 07:41:51;;;;;;;29.57;19.23;;;;;;;-7.53;100.00;100743.13;5019935;28;20036;-62
2022/12/15 07:44:16;;;;;;;29.67;19.17;;;;;;;-7.51;100.00;100743.28;5017768;28;20029;-62
2022/12/15 07:46:45;;;;;;;29.47;19.50;;;;;;;-7.51;100.00;100746.72;5022288;28;20030;-62
2022/12/15 07:49:12;;;;;;;31.90;20.37;;;;;;;-7.50;100.00;100748.47;5016352;28;20037;-62
2022/12/15 07:51:37;;;;;;;28.97;19.23;;;;;;;-7.51;100.00;100746.72;5008071;28;20061;-62
2022/12/15 07:54:02;;;;;;;29.73;21.27;;;;;;;-7.49;100.00;100742.72;5015748;28;20049;-62
2022/12/15 07:56:28;;;;;;;29.63;20.90;;;;;;;-7.49;100.00;100744.34;5023675;28;20533;-62
2022/12/15 07:58:53;;;;;;;28.03;20.27;;;;;;;-7.50;100.00;100748.47;5013511;28;20033;-63
2022/12/15 08:01:18;;;;;;;29.50;20.20;;;;;;;-7.48;100.00;100751.16;5019886;28;20024;-63
2022/12/15 08:03:44;;;;;;;30.60;20.73;;;;;;;-7.47;100.00;100763.94;5024827;28;20049;-63
2022/12/15 08:06:13;;;;;;;33.43;21.70;;;;;;;-7.48;100.00;100757.09;5016669;28;20444;-63
2022/12/15 08:08:39;;;;;;;29.47;21.37;;;;;;;-7.47;100.00;100765.53;5011939;28;20033;-63
2022/12/15 08:11:09;;;;;;;30.37;20.40;;;;;;;-7.44;100.00;100767.47;5016855;28;20116;-63
2022/12/15 08:13:35;;;;;;;36.87;23.07;;;;;;;-7.42;100.00;100760.97;5011562;28;20125;-63
2022/12/15 08:16:01;;;;;;;32.70;23.03;;;;;;;-7.40;100.00;100757.91;5017975;28;20017;-63
2022/12/15 08:18:26;;;;;;;36.83;23.70;;;;;;;-7.35;100.00;100763.38;5013674;28;20029;-63
2022/12/15 08:20:51;;;;;;;33.47;24.20;;;;;;;-7.30;100.00;100762.22;5025466;28;20382;-63
2022/12/15 08:23:17;;;;;;;35.67;22.80;;;;;;;-7.26;100.00;100759.31;5014879;28;20028;-63
2022/12/15 08:25:42;;;;;;;31.60;21.73;;;;;;;-7.24;100.00;100767.91;5020495;28;20025;-63
2022/12/15 08:28:07;;;;;;;29.33;21.50;;;;;;;-7.23;100.00;100774.72;5011462;28;20112;-63
2022/12/15 08:30:33;;;;;;;31.33;21.27;;;;;;;-7.23;100.00;100772.19;5019140;28;20036;-63
2022/12/15 08:32:59;;;;;;;33.83;21.40;;;;;;;-7.25;100.00;100775.31;5017307;28;20032;-63
2022/12/15 08:35:25;;;;;;;35.70;22.77;;;;;;;-7.24;100.00;100770.44;5019155;28;20033;-63
2022/12/15 08:37:50;;;;;;;32.37;22.50;;;;;;;-7.21;100.00;100761.41;5017500;28;20537;-63
2022/12/15 08:40:16;;;;;;;33.40;22.23;;;;;;;-7.19;100.00;100764.94;5020572;28;20142;-63
2022/12/15 08:42:42;;;;;;;32.90;22.73;;;;;;;-7.16;100.00;100761.13;5016824;28;20116;-63
2022/12/15 08:45:10;;;;;;;36.27;24.37;;;;;;;-7.13;100.00;100770.63;5018345;28;20025;-63
2022/12/15 08:47:35;;;;;;;31.23;21.90;;;;;;;-7.08;100.00;100773.59;5016465;28;20032;-63
2022/12/15 08:50:00;;;;;;;33.57;22.07;;;;;;;-7.03;100.00;100775.88;5019041;28;20045;-63
2022/12/15 08:52:25;;;;;;;30.63;22.57;;;;;;;-6.95;100.00;100775.75;5017759;28;20090;-63
2022/12/15 08:54:51;;;;;;;31.73;22.43;;;;;;;-6.90;100.00;100778.00;5017852;28;20497;-63
2022/12/15 08:57:16;;;;;;;38.10;23.00;;;;;;;-6.86;100.00;100781.72;5019421;28;20033;-63
2022/12/15 08:59:41;;;;;;;32.50;23.13;;;;;;;-6.85;100.00;100787.66;5012992;28;20033;-63
2022/12/15 09:02:09;;;;;;;34.17;23.53;;;;;;;-6.80;100.00;100789.03;5014207;28;20017;-63
2022/12/15 09:04:34;;;;;;;37.03;23.53;;;;;;;-6.78;100.00;100795.97;5017940;28;20029;-63
2022/12/15 09:07:00;;;;;;;35.57;23.67;;;;;;;-6.73;100.00;100793.03;5020027;28;20037;-63
2022/12/15 09:09:26;;;;;;;36.70;25.60;;;;;;;-6.70;100.00;100803.44;5013170;28;20276;-64
2022/12/15 09:11:51;;;;;;;36.20;24.37;;;;;;;-6.66;100.00;100795.44;5016190;28;20087;-63
2022/12/15 09:14:17;;;;;;;36.83;24.20;;;;;;;-6.61;100.00;100806.88;5010202;28;20118;-63
2022/12/15 09:16:42;;;;;;;35.93;25.87;;;;;;;-6.57;100.00;100803.94;5012213;28;20022;-63
2022/12/15 09:19:08;;;;;;;32.23;24.57;;;;;;;-6.51;100.00;100804.53;5012211;28;20056;-63
2022/12/15 09:21:34;;;;;;;35.90;25.03;;;;;;;-6.45;100.00;100808.41;5010151;28;20029;-63
2022/12/15 09:24:01;;;;;;;36.23;27.30;;;;;;;-6.41;100.00;100808.00;5009129;28;20051;-63
2022/12/15 09:26:29;;;;;;;38.93;26.40;;;;;;;-6.35;100.00;100821.19;5012770;28;20056;-63
2022/12/15 09:28:54;;;;;;;37.10;27.23;;;;;;;-6.30;100.00;100824.19;5017770;28;20029;-63
2022/12/15 09:31:27;;;;;;;35.50;26.43;;;;;;;-6.23;100.00;100823.16;5008807;28;20087;-63
2022/12/15 09:33:54;;;;;;;39.00;26.33;;;;;;;-6.16;100.00;100821.41;5014417;28;20051;-63
2022/12/15 09:36:20;;;;;;;39.27;29.27;;;;;;;-6.09;100.00;100822.91;5013776;28;20057;-63
2022/12/15 09:38:45;;;;;;;40.33;27.30;;;;;;;-6.02;100.00;100829.41;5019479;28;20025;-64
2022/12/15 09:41:16;;;;;;;39.67;28.60;;;;;;;-5.94;100.00;100842.78;5020405;28;20747;-63
2022/12/15 09:44:01;;;;;;;37.90;29.15;;;;;;;-5.87;100.00;100836.72;5014562;28;20069;-64
2022/12/15 09:47:08;;;;;;;40.77;28.47;;;;;;;-5.80;100.00;100832.41;5018686;28;20083;-64
2022/12/15 09:49:55;;;;;;;38.00;27.20;;;;;;;-5.71;100.00;100841.63;5013559;28;20056;-64
2022/12/15 09:52:25;;;;;;;33.43;25.43;;;;;;;-5.66;100.00;100851.44;5015792;28;20097;-64
2022/12/15 09:54:51;;;;;;;35.10;26.90;;;;;;;-5.61;100.00;100848.47;5011259;28;20037;-63
2022/12/15 09:57:24;;;;;;;38.80;26.23;;;;;;;-5.54;100.00;100850.84;5011871;28;20070;-64
2022/12/15 10:00:06;;;;;;;37.33;27.50;;;;;;;-5.44;100.00;100842.53;5010956;28;20042;-64
2022/12/15 10:03:00;;;;;;;40.77;25.70;;;;;;;-5.37;100.00;100844.91;5013880;28;20033;-63
2022/12/15 10:05:33;;;;;;;38.90;27.43;;;;;;;-5.30;100.00;100838.78;5008532;28;20556;-64
2022/12/15 10:07:59;;;;;;;32.93;26.67;;;;;;;-5.23;100.00;100841.16;5016437;28;20025;-64
2022/12/15 10:10:44;;;;;;;35.47;25.70;;;;;;;-5.16;100.00;100842.63;5019926;28;20052;-64
2022/12/15 10:13:17;;;;;;;33.83;25.93;;;;;;;-5.12;100.00;100847.25;5021552;28;20045;-63
2022/12/15 10:15:57;;;;;;;40.07;26.83;;;;;;;-5.06;100.00;100836.84;5017441;28;20096;-64
2022/12/15 10:18:30;;;;;;;36.83;26.20;;;;;;;-5.01;100.00;100839.78;5016979;28;20382;-64
2022/12/15 10:20:59;;;;;;;38.13;27.33;;;;;;;-4.94;100.00;100834.56;5015652;28;21537;-64
2022/12/15 10:23:24;;;;;;;33.43;26.70;;;;;;;-4.88;100.00;100842.75;5016740;28;20033;-64
2022/12/15 10:25:58;;;;;;;37.43;25.97;;;;;;;-4.79;100.00;100841.81;5017183;28;20592;-64
2022/12/15 10:28:45;;;;;;;35.80;26.33;;;;;;;-4.71;100.00;100840.88;5013902;28;20033;-64
2022/12/15 10:31:26;;;;;;;38.57;29.07;;;;;;;-4.63;100.00;100839.06;5012323;28;20045;-64
2022/12/15 10:34:23;;;;;;;41.10;27.48;;;;;;;-4.55;100.00;100853.31;5014051;28;20076;-64
2022/12/15 10:36:50;;;;;;;39.97;26.33;;;;;;;-4.48;100.00;100848.09;5010490;28;20460;-64
2022/12/15 10:39:16;;;;;;;36.57;26.37;;;;;;;-4.40;100.00;100853.88;5010617;28;20461;-64
2022/12/15 10:41:42;;;;;;;39.33;25.87;;;;;;;-4.34;100.00;100851.00;5018694;28;20021;-64
2022/12/15 10:44:23;;;;;;;35.37;26.67;;;;;;;-4.27;100.00;100838.19;5020827;28;20033;-64
2022/12/15 10:46:54;;;;;;;40.70;27.27;;;;;;;-4.20;100.00;100837.09;5021517;28;20032;-64
2022/12/15 10:49:23;;;;;;;32.45;25.67;;;;;;;-4.14;100.00;100842.72;5020399;28;20084;-64
2022/12/15 10:51:56;;;;;;;33.03;25.67;;;;;;;-4.06;100.00;100839.97;5016569;28;20037;-64
2022/12/15 10:54:25;;;;;;;37.50;26.50;;;;;;;-4.00;100.00;100848.16;5017550;28;20055;-64
2022/12/15 10:57:30;;;;;;;38.33;25.10;;;;;;;-3.89;100.00;100844.06;5013821;28;20083;-64
2022/12/15 11:00:17;;;;;;;35.23;25.53;;;;;;;-3.76;100.00;100852.00;5013506;28;20080;-64
2022/12/15 11:02:42;;;;;;;32.57;24.80;;;;;;;-3.66;100.00;100848.66;4999224;28;20046;-64
2022/12/15 11:05:17;;;;;;;32.60;25.80;;;;;;;-3.56;100.00;100844.44;5011119;28;20032;-64
2022/12/15 11:07:47;;;;;;;35.53;25.37;;;;;;;-3.49;100.00;100851.81;5009175;28;20029;-64
2022/12/15 11:10:16;;;;;;;33.80;25.10;;;;;;;-3.41;100.00;100860.97;5010317;28;20441;-64
2022/12/15 11:12:51;;;;;;;35.37;25.53;;;;;;;-3.34;100.00;100856.44;5014357;28;20021;-64
2022/12/15 11:15:22;;;;;;;31.87;23.63;;;;;;;-3.25;100.00;100854.72;5015401;28;20040;-64
2022/12/15 11:18:22;;;;;;;31.85;24.65;;;;;;;-3.15;100.00;100854.78;5019267;28;20061;-64
2022/12/15 11:20:58;;;;;;;31.23;23.57;;;;;;;-3.06;100.00;100838.59;5020345;28;20120;-64
2022/12/15 11:23:36;;;;;;;34.40;24.63;;;;;;;-2.98;100.00;100830.00;5018985;28;20482;-64
2022/12/15 11:26:14;;;;;;;31.67;24.60;;;;;;;-2.87;100.00;100830.03;5020031;28;20473;-64
2022/12/15 11:28:48;;;;;;;34.07;24.30;;;;;;;-2.76;100.00;100839.47;5023372;28;20121;-64
2022/12/15 11:31:27;;;;;;;30.27;23.83;;;;;;;-2.68;100.00;100833.38;5018835;28;20033;-64
2022/12/15 11:33:53;;;;;;;31.77;23.73;;;;;;;-2.62;100.00;100835.56;5018460;28;20104;-64
2022/12/15 11:36:56;;;;;;;32.10;24.37;;;;;;;-2.54;100.00;100838.78;5017733;28;20469;-64
2022/12/15 11:39:35;;;;;;;35.07;24.80;;;;;;;-2.47;100.00;100836.00;5014632;28;20041;-64
2022/12/15 11:42:08;;;;;;;30.17;24.10;;;;;;;-2.36;100.00;100836.91;5022171;28;20394;-64
2022/12/15 11:44:55;;;;;;;33.33;26.10;;;;;;;-2.19;100.00;100835.75;5018593;28;20042;-64
2022/12/15 11:47:43;;;;;;;33.43;24.60;;;;;;;-2.03;100.00;100826.88;5019717;28;20040;-64
2022/12/15 11:50:09;;;;;;;34.57;26.90;;;;;;;-1.82;100.00;100829.41;5017986;28;20050;-64
2022/12/15 11:52:55;;;;;;;33.10;26.20;;;;;;;-1.62;100.00;100830.16;5018877;28;20401;-64
2022/12/15 11:55:23;;;;;;;33.63;25.03;;;;;;;-1.42;100.00;100829.19;5019194;28;20367;-64
2022/12/15 11:58:01;;;;;;;37.83;27.33;;;;;;;-1.30;100.00;100826.78;5019114;28;20272;-64
2022/12/15 12:00:33;;;;;;;33.63;26.27;;;;;;;-1.19;100.00;100832.72;5017547;28;20043;-64
2022/12/15 12:03:18;;;;;;;35.57;25.13;;;;;;;-1.00;100.00;100826.53;5018779;28;20040;-64
2022/12/15 12:05:55;;;;;;;33.63;26.13;;;;;;;-0.82;100.00;100819.44;5020234;28;20609;-64
2022/12/15 12:08:42;;;;;;;36.83;28.17;;;;;;;-0.65;100.00;100817.34;5020967;28;20037;-64
2022/12/15 12:11:24;;;;;;;31.83;25.73;;;;;;;-0.50;100.00;100815.06;5017718;28;20543;-64
2022/12/15 12:14:09;;;;;;;31.80;26.43;;;;;;;-0.38;100.00;100808.34;5020494;28;20466;-64
2022/12/15 12:16:48;;;;;;;34.83;26.03;;;;;;;-0.27;100.00;100810.84;5016881;28;20038;-64
2022/12/15 12:19:25;;;;;;;33.07;26.43;;;;;;;-0.19;99.75;100799.56;5015753;28;20029;-64
2022/12/15 12:21:58;;;;;;;31.70;25.37;;;;;;;-0.16;99.26;100794.69;5014875;28;20029;-64
2022/12/15 12:24:38;;;;;;;30.40;24.67;;;;;;;-0.17;97.55;100800.56;5017362;28;20029;-64
2022/12/15 12:27:26;;;;;;;31.23;25.90;;;;;;;-0.18;97.17;100796.22;5019331;28;20029;-65
2022/12/15 12:29:59;;;;;;;31.20;23.90;;;;;;;-0.36;96.95;100795.75;4980293;28;20073;-64
2022/12/15 12:32:47;;;;;;;30.50;25.50;;;;;;;-0.35;98.76;100796.63;5016256;28;20069;-64
2022/12/15 12:35:26;;;;;;;28.13;23.27;;;;;;;-0.41;98.37;100803.03;5016957;28;20033;-64
2022/12/15 12:37:57;;;;;;;28.53;22.93;;;;;;;-0.41;99.77;100803.03;5019667;28;20028;-64
2022/12/15 12:40:50;;;;;;;29.55;22.40;;;;;;;-0.49;98.27;100806.66;5025021;28;20067;-64
2022/12/15 12:43:31;;;;;;;30.17;23.23;;;;;;;-0.52;99.87;100807.31;5023882;28;20055;-64
2022/12/15 12:46:01;;;;;;;32.50;22.27;;;;;;;-0.50;100.00;100803.22;5018143;28;20448;-64
2022/12/15 12:48:37;;;;;;;30.50;23.23;;;;;;;-0.49;100.00;100801.56;5023430;28;20025;-64
2022/12/15 12:51:16;;;;;;;35.73;26.00;;;;;;;-0.54;99.79;100800.34;5021897;28;20045;-64
2022/12/15 12:53:41;;;;;;;31.37;24.33;;;;;;;-0.54;100.00;100797.78;5025248;28;20553;-64
2022/12/15 12:56:29;;;;;;;30.63;23.93;;;;;;;-0.57;99.67;100785.69;5024505;28;20032;-65
2022/12/15 12:58:54;;;;;;;32.57;23.80;;;;;;;-0.57;99.70;100785.69;5018408;28;20044;-65
2022/12/15 13:01:35;;;;;;;30.67;24.33;;;;;;;-0.57;100.00;100780.59;5023136;28;20143;-64
2022/12/15 13:04:07;;;;;;;28.43;23.63;;;;;;;-0.57;100.00;100772.97;5022799;28;20456;-63
2022/12/15 13:06:32;;;;;;;30.57;23.13;;;;;;;-0.55;100.00;100775.63;5024991;28;20271;-63
2022/12/15 13:09:18;;;;;;;31.93;23.53;;;;;;;-0.58;100.00;100778.84;5021473;28;20414;-63
2022/12/15 13:11:46;;;;;;;31.63;24.60;;;;;;;-0.62;100.00;100771.75;5016971;28;20037;-63
2022/12/15 13:14:17;;;;;;;31.17;24.03;;;;;;;-0.67;100.00;100767.97;5016613;28;20076;-63
2022/12/15 13:16:45;;;;;;;25.30;22.00;;;;;;;-0.74;100.00;100767.47;5019764;28;20083;-63
2022/12/15 13:19:11;;;;;;;30.87;23.10;;;;;;;-0.76;100.00;100763.94;5017948;28;20057;-65
2022/12/15 13:21:45;;;;;;;32.40;25.20;;;;;;;-0.81;100.00;100755.03;5020173;28;20045;-63
2022/12/15 13:24:29;;;;;;;33.10;26.30;;;;;;;-0.84;100.00;100749.72;5018178;28;20107;-63
2022/12/15 13:27:10;;;;;;;37.33;25.77;;;;;;;-0.85;100.00;100747.97;5023490;28;20551;-63
2022/12/15 13:29:52;;;;;;;29.17;24.70;;;;;;;-0.83;100.00;100745.53;5022420;28;20068;-63
2022/12/15 13:33:11;;;;;;;32.83;26.07;;;;;;;-0.84;100.00;100744.63;5019658;28;20163;-63
2022/12/15 13:35:40;;;;;;;32.60;26.30;;;;;;;-0.85;100.00;100748.81;4936744;29;20050;-62
2022/12/15 13:38:16;;;;;;;32.37;25.33;;;;;;;-0.83;100.00;100736.25;5006830;28;20041;-63
2022/12/15 13:40:53;;;;;;;32.83;24.03;;;;;;;-0.83;100.00;100743.88;5018909;28;20466;-62